LMML/MLA METAR and TAF weather

Enter ICAO airport designator
Station Type Date Time Source
LMML METAR 2020/01/19 23:15 UTC NOAA

LMML 192315Z 16009KT 9999 FEW049 09/08 Q1025 NOSIG


Station Type Date Time Source
LMML Decoded METAR 2020/01/19 23:15 UTC NOAA

Luqa, Malta (LMML) 35-51N 014-29E 91M
Jan 19, 2020 - 06:15 PM EST / 2020.01.19 2315 UTC
Wind: from the SSE (160 degrees) at 10 MPH (9 KT):0
Visibility: greater than 7 mile(s):0
Sky conditions: mostly clear
Temperature: 48 F (9 C)
Dew Point: 46 F (8 C)
Relative Humidity: 93%
Pressure (altimeter): 30.27 in. Hg (1025 hPa)
ob: LMML 192315Z 16009KT 9999 FEW049 09/08 Q1025 NOSIG
cycle: 23

Station Type Date Time Source
LMML TAF 2020/01/19 18:46 UTC NOAA

TAF LMML 191700Z 1918/2018 18005KT 9999 SCT020
BECMG 1921/1924 12010KT
BECMG 2006/2009 12020G30KT PROB40 2006/2018 8000 SHRA BKN025TCU

Example: see airport list